sensor_id;sensor_type;location;lat;lon;timestamp;temperature;humidity
9167;DHT22;4618;48.818;9.088;2022-11-20T00:00:03;4.10;60.90
9167;DHT22;4618;48.818;9.088;2022-11-20T00:02:29;4.20;46.20
9167;DHT22;4618;48.818;9.088;2022-11-20T00:04:55;4.30;46.00
9167;DHT22;4618;48.818;9.088;2022-11-20T00:07:20;4.30;32.70
9167;DHT22;4618;48.818;9.088;2022-11-20T00:09:46;4.30;39.20
9167;DHT22;4618;48.818;9.088;2022-11-20T00:12:11;4.30;57.40
9167;DHT22;4618;48.818;9.088;2022-11-20T00:14:37;4.30;51.50
9167;DHT22;4618;48.818;9.088;2022-11-20T00:17:02;4.20;61.70
9167;DHT22;4618;48.818;9.088;2022-11-20T00:19:28;4.30;78.20
9167;DHT22;4618;48.818;9.088;2022-11-20T00:21:53;4.20;51.60
9167;DHT22;4618;48.818;9.088;2022-11-20T00:24:20;4.30;62.40
9167;DHT22;4618;48.818;9.088;2022-11-20T00:26:46;4.40;57.00
9167;DHT22;4618;48.818;9.088;2022-11-20T00:29:12;4.50;73.40
9167;DHT22;4618;48.818;9.088;2022-11-20T00:31:37;4.50;90.40
9167;DHT22;4618;48.818;9.088;2022-11-20T00:34:03;4.60;99.90
9167;DHT22;4618;48.818;9.088;2022-11-20T00:36:31;4.50;99.90
9167;DHT22;4618;48.818;9.088;2022-11-20T00:38:58;4.60;99.90
9167;DHT22;4618;48.818;9.088;2022-11-20T00:41:24;4.60;99.90
9167;DHT22;4618;48.818;9.088;2022-11-20T00:43:55;4.50;99.90
9167;DHT22;4618;48.818;9.088;2022-11-20T00:46:22;4.50;99.90
9167;DHT22;4618;48.818;9.088;2022-11-20T00:48:48;4.60;99.90
9167;DHT22;4618;48.818;9.088;2022-11-20T00:51:15;4.70;99.90
9167;DHT22;4618;48.818;9.088;2022-11-20T00:53:41;4.70;1.00
9167;DHT22;4618;48.818;9.088;2022-11-20T00:56:10;4.70;1.00
9167;DHT22;4618;48.818;9.088;2022-11-20T00:58:38;4.70;1.00
9167;DHT22;4618;48.818;9.088;2022-11-20T01:03:40;4.60;46.00
9167;DHT22;4618;48.818;9.088;2022-11-20T01:06:12;4.50;74.90
9167;DHT22;4618;48.818;9.088;2022-11-20T01:08:38;4.50;99.90
9167;DHT22;4618;48.818;9.088;2022-11-20T01:11:09;4.60;99.90
9167;DHT22;4618;48.818;9.088;2022-11-20T01:13:36;4.60;99.90
9167;DHT22;4618;48.818;9.088;2022-11-20T01:16:10;4.70;99.90
9167;DHT22;4618;48.818;9.088;2022-11-20T01:18:38;4.80;49.20
9167;DHT22;4618;48.818;9.088;2022-11-20T01:21:27;4.80;1.00
9167;DHT22;4618;48.818;9.088;2022-11-20T01:23:53;4.90;1.00
9167;DHT22;4618;48.818;9.088;2022-11-20T01:26:22;4.90;1.00
9167;DHT22;4618;48.818;9.088;2022-11-20T01:28:48;4.90;1.00
9167;DHT22;4618;48.818;9.088;2022-11-20T01:31:34;5.00;1.00
9167;DHT22;4618;48.818;9.088;2022-11-20T01:34:05;5.00;60.90
9167;DHT22;4618;48.818;9.088;2022-11-20T01:36:32;5.10;1.00
9167;DHT22;4618;48.818;9.088;2022-11-20T01:39:00;5.10;99.90
9167;DHT22;4618;48.818;9.088;2022-11-20T01:41:28;5.20;1.00
9167;DHT22;4618;48.818;9.088;2022-11-20T01:44:14;5.20;1.00
9167;DHT22;4618;48.818;9.088;2022-11-20T01:49:21;5.30;58.90
9167;DHT22;4618;48.818;9.088;2022-11-20T01:51:53;5.30;1.00
9167;DHT22;4618;48.818;9.088;2022-11-20T01:54:28;5.20;1.00
9167;DHT22;4618;48.818;9.088;2022-11-20T01:56:57;5.20;1.00
9167;DHT22;4618;48.818;9.088;2022-11-20T01:59:25;5.20;1.00
9167;DHT22;4618;48.818;9.088;2022-11-20T02:01:52;5.40;99.90
9167;DHT22;4618;48.818;9.088;2022-11-20T02:04:18;5.50;1.00
9167;DHT22;4618;48.818;9.088;2022-11-20T02:06:48;5.50;1.00
9167;DHT22;4618;48.818;9.088;2022-11-20T02:09:15;5.50;1.00
9167;DHT22;4618;48.818;9.088;2022-11-20T02:11:41;5.40;11.60
9167;DHT22;4618;48.818;9.088;2022-11-20T02:14:07;5.40;1.00
9167;DHT22;4618;48.818;9.088;2022-11-20T02:16:39;5.40;1.00
9167;DHT22;4618;48.818;9.088;2022-11-20T02:19:12;5.40;1.00
9167;DHT22;4618;48.818;9.088;2022-11-20T02:21:47;5.30;1.00
9167;DHT22;4618;48.818;9.088;2022-11-20T02:24:15;5.40;99.90
9167;DHT22;4618;48.818;9.088;2022-11-20T02:27:11;5.40;99.90
9167;DHT22;4618;48.818;9.088;2022-11-20T02:32:21;5.40;99.90
9167;DHT22;4618;48.818;9.088;2022-11-20T02:34:46;5.40;99.90
9167;DHT22;4618;48.818;9.088;2022-11-20T02:37:12;5.50;99.90
9167;DHT22;4618;48.818;9.088;2022-11-20T02:39:39;5.50;99.90
9167;DHT22;4618;48.818;9.088;2022-11-20T02:42:05;5.40;99.90
9167;DHT22;4618;48.818;9.088;2022-11-20T02:44:31;5.30;1.00
9167;DHT22;4618;48.818;9.088;2022-11-20T02:46:57;5.40;1.00
9167;DHT22;4618;48.818;9.088;2022-11-20T02:49:24;5.50;1.00
9167;DHT22;4618;48.818;9.088;2022-11-20T02:51:50;5.60;99.90
9167;DHT22;4618;48.818;9.088;2022-11-20T02:54:15;5.60;99.90
9167;DHT22;4618;48.818;9.088;2022-11-20T02:56:41;5.70;99.90
9167;DHT22;4618;48.818;9.088;2022-11-20T02:59:07;5.60;99.90
9167;DHT22;4618;48.818;9.088;2022-11-20T03:01:33;5.70;93.70
9167;DHT22;4618;48.818;9.088;2022-11-20T03:04:00;5.70;11.70
9167;DHT22;4618;48.818;9.088;2022-11-20T03:06:25;5.70;31.00
9167;DHT22;4618;48.818;9.088;2022-11-20T03:08:51;5.50;99.90
9167;DHT22;4618;48.818;9.088;2022-11-20T03:11:17;5.40;1.00
9167;DHT22;4618;48.818;9.088;2022-11-20T03:13:42;5.50;1.00
9167;DHT22;4618;48.818;9.088;2022-11-20T03:16:17;5.40;99.90
9167;DHT22;4618;48.818;9.088;2022-11-20T03:18:43;5.40;1.00
9167;DHT22;4618;48.818;9.088;2022-11-20T03:21:10;5.30;1.00
9167;DHT22;4618;48.818;9.088;2022-11-20T03:23:37;5.20;1.00
9167;DHT22;4618;48.818;9.088;2022-11-20T03:26:13;5.00;99.90
9167;DHT22;4618;48.818;9.088;2022-11-20T03:28:39;5.00;99.90
9167;DHT22;4618;48.818;9.088;2022-11-20T03:31:16;5.00;99.90
9167;DHT22;4618;48.818;9.088;2022-11-20T03:33:42;4.90;99.90
9167;DHT22;4618;48.818;9.088;2022-11-20T03:36:13;4.90;99.90
9167;DHT22;4618;48.818;9.088;2022-11-20T03:38:39;4.90;99.90
9167;DHT22;4618;48.818;9.088;2022-11-20T03:41:07;4.90;99.90
9167;DHT22;4618;48.818;9.088;2022-11-20T03:43:33;4.90;99.90
9167;DHT22;4618;48.818;9.088;2022-11-20T03:45:59;4.80;1.00
9167;DHT22;4618;48.818;9.088;2022-11-20T03:48:25;4.80;1.00
9167;DHT22;4618;48.818;9.088;2022-11-20T03:50:52;4.70;1.00
9167;DHT22;4618;48.818;9.088;2022-11-20T03:53:18;4.70;1.00
9167;DHT22;4618;48.818;9.088;2022-11-20T03:55:45;4.70;1.00
9167;DHT22;4618;48.818;9.088;2022-11-20T03:58:15;4.70;1.00
9167;DHT22;4618;48.818;9.088;2022-11-20T04:00:40;4.60;1.00
9167;DHT22;4618;48.818;9.088;2022-11-20T04:03:06;4.60;1.00
9167;DHT22;4618;48.818;9.088;2022-11-20T04:05:33;4.60;1.00
9167;DHT22;4618;48.818;9.088;2022-11-20T04:07:59;4.60;1.00
9167;DHT22;4618;48.818;9.088;2022-11-20T04:10:24;4.70;1.00
9167;DHT22;4618;48.818;9.088;2022-11-20T04:12:50;4.70;1.00
9167;DHT22;4618;48.818;9.088;2022-11-20T04:15:15;4.80;1.00
9167;DHT22;4618;48.818;9.088;2022-11-20T04:17:41;4.80;99.90
9167;DHT22;4618;48.818;9.088;2022-11-20T04:20:07;4.80;99.90
9167;DHT22;4618;48.818;9.088;2022-11-20T04:22:32;4.90;99.90
9167;DHT22;4618;48.818;9.088;2022-11-20T04:24:58;5.00;99.90
9167;DHT22;4618;48.818;9.088;2022-11-20T04:27:23;5.10;1.00
9167;DHT22;4618;48.818;9.088;2022-11-20T04:29:49;5.20;1.00
9167;DHT22;4618;48.818;9.088;2022-11-20T04:32:14;5.20;1.00
9167;DHT22;4618;48.818;9.088;2022-11-20T04:34:40;5.20;1.00
9167;DHT22;4618;48.818;9.088;2022-11-20T04:37:05;5.30;1.00
9167;DHT22;4618;48.818;9.088;2022-11-20T04:39:31;5.20;1.00
9167;DHT22;4618;48.818;9.088;2022-11-20T04:41:56;5.30;1.00
9167;DHT22;4618;48.818;9.088;2022-11-20T04:44:40;5.30;1.00
9167;DHT22;4618;48.818;9.088;2022-11-20T04:47:06;5.30;1.00
9167;DHT22;4618;48.818;9.088;2022-11-20T04:49:32;5.40;99.90
9167;DHT22;4618;48.818;9.088;2022-11-20T04:51:58;5.30;99.90
9167;DHT22;4618;48.818;9.088;2022-11-20T04:54:23;5.40;99.90
9167;DHT22;4618;48.818;9.088;2022-11-20T04:56:49;5.40;99.90
9167;DHT22;4618;48.818;9.088;2022-11-20T04:59:15;5.50;99.90
9167;DHT22;4618;48.818;9.088;2022-11-20T05:01:41;5.60;99.90
9167;DHT22;4618;48.818;9.088;2022-11-20T05:04:06;5.50;99.90
9167;DHT22;4618;48.818;9.088;2022-11-20T05:06:32;5.60;99.90
9167;DHT22;4618;48.818;9.088;2022-11-20T05:08:58;5.60;99.90
9167;DHT22;4618;48.818;9.088;2022-11-20T05:11:24;5.60;99.90
9167;DHT22;4618;48.818;9.088;2022-11-20T05:13:50;5.60;1.00
9167;DHT22;4618;48.818;9.088;2022-11-20T05:16:21;5.50;1.00
9167;DHT22;4618;48.818;9.088;2022-11-20T05:18:48;5.60;99.90
9167;DHT22;4618;48.818;9.088;2022-11-20T05:21:14;5.60;99.90
9167;DHT22;4618;48.818;9.088;2022-11-20T05:23:40;5.50;99.90
9167;DHT22;4618;48.818;9.088;2022-11-20T05:26:08;5.50;99.90
9167;DHT22;4618;48.818;9.088;2022-11-20T05:28:34;5.60;99.90
9167;DHT22;4618;48.818;9.088;2022-11-20T05:31:12;5.60;99.90
9167;DHT22;4618;48.818;9.088;2022-11-20T05:33:41;5.60;99.90
9167;DHT22;4618;48.818;9.088;2022-11-20T05:36:07;5.70;99.90
9167;DHT22;4618;48.818;9.088;2022-11-20T05:38:33;5.70;99.90
9167;DHT22;4618;48.818;9.088;2022-11-20T05:41:10;5.60;99.90
9167;DHT22;4618;48.818;9.088;2022-11-20T05:43:37;5.70;99.90
9167;DHT22;4618;48.818;9.088;2022-11-20T05:46:04;5.60;99.90
9167;DHT22;4618;48.818;9.088;2022-11-20T05:48:31;5.60;99.90
9167;DHT22;4618;48.818;9.088;2022-11-20T05:50:58;5.60;99.90
9167;DHT22;4618;48.818;9.088;2022-11-20T05:53:24;5.60;99.90
9167;DHT22;4618;48.818;9.088;2022-11-20T05:58:28;5.60;99.90
9167;DHT22;4618;48.818;9.088;2022-11-20T06:00:54;5.60;99.90
9167;DHT22;4618;48.818;9.088;2022-11-20T06:03:19;5.50;99.90
9167;DHT22;4618;48.818;9.088;2022-11-20T06:05:45;5.60;1.00
9167;DHT22;4618;48.818;9.088;2022-11-20T06:08:11;5.60;99.90
9167;DHT22;4618;48.818;9.088;2022-11-20T06:10:37;5.70;99.90
9167;DHT22;4618;48.818;9.088;2022-11-20T06:13:02;5.70;99.90
9167;DHT22;4618;48.818;9.088;2022-11-20T06:15:28;5.60;99.90
9167;DHT22;4618;48.818;9.088;2022-11-20T06:17:54;5.70;99.90
9167;DHT22;4618;48.818;9.088;2022-11-20T06:20:20;5.70;99.90
9167;DHT22;4618;48.818;9.088;2022-11-20T06:22:46;5.60;1.00
9167;DHT22;4618;48.818;9.088;2022-11-20T06:25:12;5.60;99.90
9167;DHT22;4618;48.818;9.088;2022-11-20T06:27:37;5.70;1.00
9167;DHT22;4618;48.818;9.088;2022-11-20T06:30:04;5.70;1.00
9167;DHT22;4618;48.818;9.088;2022-11-20T06:32:29;5.70;1.00
9167;DHT22;4618;48.818;9.088;2022-11-20T06:34:55;5.80;99.90
9167;DHT22;4618;48.818;9.088;2022-11-20T06:37:20;5.80;99.90
9167;DHT22;4618;48.818;9.088;2022-11-20T06:39:46;5.80;99.90
9167;DHT22;4618;48.818;9.088;2022-11-20T06:42:12;5.70;99.90
9167;DHT22;4618;48.818;9.088;2022-11-20T06:44:37;5.70;99.90
9167;DHT22;4618;48.818;9.088;2022-11-20T06:47:03;5.80;99.90
9167;DHT22;4618;48.818;9.088;2022-11-20T06:49:28;5.70;99.90
9167;DHT22;4618;48.818;9.088;2022-11-20T06:51:54;5.80;99.90
9167;DHT22;4618;48.818;9.088;2022-11-20T06:54:19;5.70;99.90
9167;DHT22;4618;48.818;9.088;2022-11-20T06:56:48;5.80;99.90
9167;DHT22;4618;48.818;9.088;2022-11-20T06:59:14;5.80;99.90
9167;DHT22;4618;48.818;9.088;2022-11-20T07:01:39;5.80;99.90
9167;DHT22;4618;48.818;9.088;2022-11-20T07:04:05;5.80;99.90
9167;DHT22;4618;48.818;9.088;2022-11-20T07:06:31;5.80;99.90
9167;DHT22;4618;48.818;9.088;2022-11-20T07:08:57;5.90;99.90
9167;DHT22;4618;48.818;9.088;2022-11-20T07:11:22;5.90;99.90
9167;DHT22;4618;48.818;9.088;2022-11-20T07:13:48;5.90;99.90
9167;DHT22;4618;48.818;9.088;2022-11-20T07:16:15;5.90;78.30
9167;DHT22;4618;48.818;9.088;2022-11-20T07:18:41;5.90;54.50
9167;DHT22;4618;48.818;9.088;2022-11-20T07:21:09;5.90;99.90
9167;DHT22;4618;48.818;9.088;2022-11-20T07:23:35;5.90;99.90
9167;DHT22;4618;48.818;9.088;2022-11-20T07:26:09;5.90;99.90
9167;DHT22;4618;48.818;9.088;2022-11-20T07:28:35;5.90;99.90
9167;DHT22;4618;48.818;9.088;2022-11-20T07:31:02;5.90;99.90
9167;DHT22;4618;48.818;9.088;2022-11-20T07:33:28;5.90;99.90
9167;DHT22;4618;48.818;9.088;2022-11-20T07:35:53;5.90;99.90
9167;DHT22;4618;48.818;9.088;2022-11-20T07:38:19;6.00;99.90
9167;DHT22;4618;48.818;9.088;2022-11-20T07:40:44;6.20;1.00
9167;DHT22;4618;48.818;9.088;2022-11-20T07:43:10;6.20;1.00
9167;DHT22;4618;48.818;9.088;2022-11-20T07:45:35;6.10;99.90
9167;DHT22;4618;48.818;9.088;2022-11-20T07:48:01;6.00;1.00
9167;DHT22;4618;48.818;9.088;2022-11-20T07:50:27;6.00;1.00
9167;DHT22;4618;48.818;9.088;2022-11-20T07:52:59;6.00;1.00
9167;DHT22;4618;48.818;9.088;2022-11-20T07:55:25;5.90;1.00
9167;DHT22;4618;48.818;9.088;2022-11-20T07:57:54;6.00;1.00
9167;DHT22;4618;48.818;9.088;2022-11-20T08:00:21;6.10;99.90
9167;DHT22;4618;48.818;9.088;2022-11-20T08:02:46;6.20;99.90
9167;DHT22;4618;48.818;9.088;2022-11-20T08:05:12;6.20;99.90
9167;DHT22;4618;48.818;9.088;2022-11-20T08:07:39;6.30;99.90
9167;DHT22;4618;48.818;9.088;2022-11-20T08:10:06;6.40;99.90
9167;DHT22;4618;48.818;9.088;2022-11-20T08:12:32;6.50;99.90
9167;DHT22;4618;48.818;9.088;2022-11-20T08:15:16;6.50;1.00
9167;DHT22;4618;48.818;9.088;2022-11-20T08:17:42;6.60;1.00
9167;DHT22;4618;48.818;9.088;2022-11-20T08:20:07;6.60;1.00
9167;DHT22;4618;48.818;9.088;2022-11-20T08:22:33;6.60;1.00
9167;DHT22;4618;48.818;9.088;2022-11-20T08:24:59;6.70;99.90
9167;DHT22;4618;48.818;9.088;2022-11-20T08:27:24;6.80;1.00
9167;DHT22;4618;48.818;9.088;2022-11-20T08:29:50;6.80;99.90
9167;DHT22;4618;48.818;9.088;2022-11-20T08:32:15;6.90;99.90
9167;DHT22;4618;48.818;9.088;2022-11-20T08:34:41;7.00;99.90
9167;DHT22;4618;48.818;9.088;2022-11-20T08:37:06;7.10;99.90
9167;DHT22;4618;48.818;9.088;2022-11-20T08:39:32;7.30;1.00
9167;DHT22;4618;48.818;9.088;2022-11-20T08:41:58;7.40;1.00
9167;DHT22;4618;48.818;9.088;2022-11-20T08:44:23;7.50;1.00
9167;DHT22;4618;48.818;9.088;2022-11-20T08:46:49;7.70;1.00
9167;DHT22;4618;48.818;9.088;2022-11-20T08:49:15;7.80;99.90
9167;DHT22;4618;48.818;9.088;2022-11-20T08:51:41;7.70;99.90
9167;DHT22;4618;48.818;9.088;2022-11-20T08:54:08;7.70;99.90
9167;DHT22;4618;48.818;9.088;2022-11-20T08:56:33;7.70;99.90
9167;DHT22;4618;48.818;9.088;2022-11-20T08:58:59;7.60;1.00
9167;DHT22;4618;48.818;9.088;2022-11-20T09:01:25;7.60;1.00
9167;DHT22;4618;48.818;9.088;2022-11-20T09:03:51;7.50;1.00
9167;DHT22;4618;48.818;9.088;2022-11-20T09:06:18;7.50;1.00
9167;DHT22;4618;48.818;9.088;2022-11-20T09:08:43;7.50;1.00
9167;DHT22;4618;48.818;9.088;2022-11-20T09:11:09;7.50;1.00
9167;DHT22;4618;48.818;9.088;2022-11-20T09:16:09;7.40;1.00
9167;DHT22;4618;48.818;9.088;2022-11-20T09:18:36;7.50;1.00
9167;DHT22;4618;48.818;9.088;2022-11-20T09:21:05;7.50;1.00
9167;DHT22;4618;48.818;9.088;2022-11-20T09:23:32;7.60;1.00
9167;DHT22;4618;48.818;9.088;2022-11-20T09:26:02;7.60;1.00
9167;DHT22;4618;48.818;9.088;2022-11-20T09:28:28;7.50;1.00
9167;DHT22;4618;48.818;9.088;2022-11-20T09:30:54;7.40;99.90
9167;DHT22;4618;48.818;9.088;2022-11-20T09:33:20;7.40;99.90
9167;DHT22;4618;48.818;9.088;2022-11-20T09:35:45;7.30;99.90
9167;DHT22;4618;48.818;9.088;2022-11-20T09:38:11;7.30;99.90
9167;DHT22;4618;48.818;9.088;2022-11-20T09:40:40;7.30;99.90
9167;DHT22;4618;48.818;9.088;2022-11-20T09:43:18;7.30;99.90
9167;DHT22;4618;48.818;9.088;2022-11-20T09:46:02;7.30;1.00
9167;DHT22;4618;48.818;9.088;2022-11-20T09:49:01;7.30;99.90
9167;DHT22;4618;48.818;9.088;2022-11-20T09:54:20;7.10;1.00
9167;DHT22;4618;48.818;9.088;2022-11-20T09:56:51;7.20;99.90
9167;DHT22;4618;48.818;9.088;2022-11-20T09:59:35;7.10;99.90
9167;DHT22;4618;48.818;9.088;2022-11-20T10:04:53;7.20;99.90
9167;DHT22;4618;48.818;9.088;2022-11-20T10:07:30;7.10;99.90
9167;DHT22;4618;48.818;9.088;2022-11-20T10:09:57;7.10;99.90
9167;DHT22;4618;48.818;9.088;2022-11-20T10:12:51;7.10;99.90
9167;DHT22;4618;48.818;9.088;2022-11-20T10:24:15;6.80;1.00
9167;DHT22;4618;48.818;9.088;2022-11-20T10:27:21;6.60;1.00
9167;DHT22;4618;48.818;9.088;2022-11-20T10:30:03;6.40;99.90
9167;DHT22;4618;48.818;9.088;2022-11-20T10:32:38;6.30;1.00
9167;DHT22;4618;48.818;9.088;2022-11-20T10:38:00;6.30;1.00
9167;DHT22;4618;48.818;9.088;2022-11-20T10:40:38;6.30;1.00
9167;DHT22;4618;48.818;9.088;2022-11-20T10:43:21;6.30;99.90
9167;DHT22;4618;48.818;9.088;2022-11-20T10:46:08;6.20;1.00
9167;DHT22;4618;48.818;9.088;2022-11-20T10:48:36;6.10;1.00
9167;DHT22;4618;48.818;9.088;2022-11-20T10:51:21;6.20;23.80
9167;DHT22;4618;48.818;9.088;2022-11-20T10:56:44;6.40;99.90
9167;DHT22;4618;48.818;9.088;2022-11-20T11:01:58;6.60;99.90
9167;DHT22;4618;48.818;9.088;2022-11-20T11:06:51;6.50;99.90
9167;DHT22;4618;48.818;9.088;2022-11-20T11:09:33;6.50;99.90
9167;DHT22;4618;48.818;9.088;2022-11-20T11:11:59;6.50;99.90
9167;DHT22;4618;48.818;9.088;2022-11-20T11:14:25;6.50;99.90
9167;DHT22;4618;48.818;9.088;2022-11-20T11:16:56;6.50;99.90
9167;DHT22;4618;48.818;9.088;2022-11-20T11:19:24;6.60;99.90
9167;DHT22;4618;48.818;9.088;2022-11-20T11:21:53;6.70;99.90
9167;DHT22;4618;48.818;9.088;2022-11-20T11:24:28;8.40;1.00
9167;DHT22;4618;48.818;9.088;2022-11-20T11:27:02;9.90;1.00
9167;DHT22;4618;48.818;9.088;2022-11-20T11:29:33;10.90;1.00
9167;DHT22;4618;48.818;9.088;2022-11-20T11:32:13;11.20;99.90
9167;DHT22;4618;48.818;9.088;2022-11-20T11:34:39;11.60;24.10
9167;DHT22;4618;48.818;9.088;2022-11-20T11:37:13;12.00;1.00
9167;DHT22;4618;48.818;9.088;2022-11-20T11:39:42;12.10;99.90
9167;DHT22;4618;48.818;9.088;2022-11-20T11:42:12;11.80;1.00
9167;DHT22;4618;48.818;9.088;2022-11-20T11:44:45;12.00;1.00
9167;DHT22;4618;48.818;9.088;2022-11-20T11:47:37;11.90;1.00
9167;DHT22;4618;48.818;9.088;2022-11-20T11:50:15;11.00;1.00
9167;DHT22;4618;48.818;9.088;2022-11-20T11:53:09;10.70;1.00
9167;DHT22;4618;48.818;9.088;2022-11-20T12:00:49;9.80;1.00
9167;DHT22;4618;48.818;9.088;2022-11-20T12:03:28;10.60;1.00
9167;DHT22;4618;48.818;9.088;2022-11-20T12:06:01;11.70;99.90
9167;DHT22;4618;48.818;9.088;2022-11-20T12:11:19;12.20;1.00
9167;DHT22;4618;48.818;9.088;2022-11-20T12:13:54;11.20;1.00
9167;DHT22;4618;48.818;9.088;2022-11-20T12:16:21;10.90;99.90
9167;DHT22;4618;48.818;9.088;2022-11-20T12:18:52;11.30;1.00
9167;DHT22;4618;48.818;9.088;2022-11-20T12:21:20;10.50;1.00
9167;DHT22;4618;48.818;9.088;2022-11-20T12:26:55;10.50;1.00
9167;DHT22;4618;48.818;9.088;2022-11-20T12:34:52;11.00;99.90
9167;DHT22;4618;48.818;9.088;2022-11-20T13:07:52;10.30;99.90
9167;DHT22;4618;48.818;9.088;2022-11-20T13:12:54;10.60;4.80
9167;DHT22;4618;48.818;9.088;2022-11-20T13:15:26;10.20;99.90
9167;DHT22;4618;48.818;9.088;2022-11-20T13:17:59;11.00;1.00
9167;DHT22;4618;48.818;9.088;2022-11-20T13:20:26;11.60;99.90
9167;DHT22;4618;48.818;9.088;2022-11-20T13:22:53;11.80;99.90
9167;DHT22;4618;48.818;9.088;2022-11-20T13:25:36;11.80;99.90
9167;DHT22;4618;48.818;9.088;2022-11-20T13:30:49;12.40;99.90
9167;DHT22;4618;48.818;9.088;2022-11-20T13:33:28;11.80;99.90
9167;DHT22;4618;48.818;9.088;2022-11-20T13:36:00;11.70;99.90
9167;DHT22;4618;48.818;9.088;2022-11-20T13:38:26;11.30;99.90
9167;DHT22;4618;48.818;9.088;2022-11-20T13:40:58;10.00;1.00
9167;DHT22;4618;48.818;9.088;2022-11-20T13:43:42;9.20;99.90
9167;DHT22;4618;48.818;9.088;2022-11-20T13:46:09;9.10;99.90
9167;DHT22;4618;48.818;9.088;2022-11-20T13:48:43;8.80;99.90
9167;DHT22;4618;48.818;9.088;2022-11-20T13:51:35;8.70;99.90
9167;DHT22;4618;48.818;9.088;2022-11-20T13:57:04;8.40;1.00
9167;DHT22;4618;48.818;9.088;2022-11-20T14:02:22;8.10;99.90
9167;DHT22;4618;48.818;9.088;2022-11-20T14:04:51;7.90;99.90
9167;DHT22;4618;48.818;9.088;2022-11-20T14:07:20;7.70;1.00
9167;DHT22;4618;48.818;9.088;2022-11-20T14:09:52;7.70;1.00
9167;DHT22;4618;48.818;9.088;2022-11-20T14:12:27;7.70;1.00
9167;DHT22;4618;48.818;9.088;2022-11-20T14:14:54;7.60;1.00
9167;DHT22;4618;48.818;9.088;2022-11-20T14:17:33;7.60;1.00
9167;DHT22;4618;48.818;9.088;2022-11-20T14:20:05;7.60;1.00
9167;DHT22;4618;48.818;9.088;2022-11-20T14:22:31;7.50;1.00
9167;DHT22;4618;48.818;9.088;2022-11-20T14:27:35;7.60;1.00
9167;DHT22;4618;48.818;9.088;2022-11-20T14:30:02;7.50;1.00
9167;DHT22;4618;48.818;9.088;2022-11-20T14:32:29;7.40;1.00
9167;DHT22;4618;48.818;9.088;2022-11-20T14:34:59;7.50;1.00
9167;DHT22;4618;48.818;9.088;2022-11-20T14:37:29;7.50;1.00
9167;DHT22;4618;48.818;9.088;2022-11-20T14:39:56;7.60;1.00
9167;DHT22;4618;48.818;9.088;2022-11-20T14:42:25;7.50;1.00
9167;DHT22;4618;48.818;9.088;2022-11-20T14:44:55;7.50;1.00
9167;DHT22;4618;48.818;9.088;2022-11-20T14:47:25;7.50;99.90
9167;DHT22;4618;48.818;9.088;2022-11-20T14:49:52;7.50;93.80
9167;DHT22;4618;48.818;9.088;2022-11-20T14:52:21;7.50;1.00
9167;DHT22;4618;48.818;9.088;2022-11-20T14:54:50;7.60;1.00
9167;DHT22;4618;48.818;9.088;2022-11-20T14:57:33;7.90;1.00
9167;DHT22;4618;48.818;9.088;2022-11-20T15:00:29;8.10;1.00
9167;DHT22;4618;48.818;9.088;2022-11-20T15:02:56;7.80;1.00
9167;DHT22;4618;48.818;9.088;2022-11-20T15:05:25;7.60;99.90
9167;DHT22;4618;48.818;9.088;2022-11-20T15:08:08;7.40;99.90
9167;DHT22;4618;48.818;9.088;2022-11-20T15:10:34;7.20;1.00
9167;DHT22;4618;48.818;9.088;2022-11-20T15:13:03;7.20;99.90
9167;DHT22;4618;48.818;9.088;2022-11-20T15:18:03;7.00;1.00
9167;DHT22;4618;48.818;9.088;2022-11-20T15:20:31;6.90;1.00
9167;DHT22;4618;48.818;9.088;2022-11-20T15:22:57;6.90;1.00
9167;DHT22;4618;48.818;9.088;2022-11-20T15:25:23;6.80;1.00
9167;DHT22;4618;48.818;9.088;2022-11-20T15:27:53;6.70;1.00
9167;DHT22;4618;48.818;9.088;2022-11-20T15:30:20;6.50;99.90
9167;DHT22;4618;48.818;9.088;2022-11-20T15:32:47;6.40;99.90
9167;DHT22;4618;48.818;9.088;2022-11-20T15:35:14;6.30;1.00
9167;DHT22;4618;48.818;9.088;2022-11-20T15:37:40;6.30;7.90
9167;DHT22;4618;48.818;9.088;2022-11-20T15:40:07;6.20;1.00
9167;DHT22;4618;48.818;9.088;2022-11-20T15:42:33;6.10;99.90
9167;DHT22;4618;48.818;9.088;2022-11-20T15:44:59;6.20;99.90
9167;DHT22;4618;48.818;9.088;2022-11-20T15:47:35;6.10;99.90
9167;DHT22;4618;48.818;9.088;2022-11-20T15:50:01;6.00;1.00
9167;DHT22;4618;48.818;9.088;2022-11-20T15:52:26;6.00;1.00
9167;DHT22;4618;48.818;9.088;2022-11-20T15:54:52;6.00;1.00
9167;DHT22;4618;48.818;9.088;2022-11-20T15:57:17;6.10;1.00
9167;DHT22;4618;48.818;9.088;2022-11-20T15:59:43;6.00;1.00
9167;DHT22;4618;48.818;9.088;2022-11-20T16:02:11;5.90;1.00
9167;DHT22;4618;48.818;9.088;2022-11-20T16:04:37;5.80;1.00
9167;DHT22;4618;48.818;9.088;2022-11-20T16:07:03;5.70;99.90
9167;DHT22;4618;48.818;9.088;2022-11-20T16:09:29;5.80;22.00
9167;DHT22;4618;48.818;9.088;2022-11-20T16:11:54;6.00;1.00
9167;DHT22;4618;48.818;9.088;2022-11-20T16:14:20;6.00;1.00
9167;DHT22;4618;48.818;9.088;2022-11-20T16:17:04;6.00;1.00
9167;DHT22;4618;48.818;9.088;2022-11-20T16:19:30;6.00;1.00
9167;DHT22;4618;48.818;9.088;2022-11-20T16:21:57;6.00;1.00
9167;DHT22;4618;48.818;9.088;2022-11-20T16:24:23;6.10;1.00
9167;DHT22;4618;48.818;9.088;2022-11-20T16:26:48;6.00;1.00
9167;DHT22;4618;48.818;9.088;2022-11-20T16:29:14;6.00;1.00
9167;DHT22;4618;48.818;9.088;2022-11-20T16:31:40;6.10;1.00
9167;DHT22;4618;48.818;9.088;2022-11-20T16:34:07;6.20;1.00
9167;DHT22;4618;48.818;9.088;2022-11-20T16:36:33;6.20;1.00
9167;DHT22;4618;48.818;9.088;2022-11-20T16:39:01;6.30;1.00
9167;DHT22;4618;48.818;9.088;2022-11-20T16:41:29;6.20;1.00
9167;DHT22;4618;48.818;9.088;2022-11-20T16:43:56;6.30;1.00
9167;DHT22;4618;48.818;9.088;2022-11-20T16:46:27;6.40;1.00
9167;DHT22;4618;48.818;9.088;2022-11-20T16:49:05;6.30;1.00
9167;DHT22;4618;48.818;9.088;2022-11-20T16:51:33;6.40;1.00
9167;DHT22;4618;48.818;9.088;2022-11-20T16:54:02;6.40;1.00
9167;DHT22;4618;48.818;9.088;2022-11-20T16:56:28;6.50;99.90
9167;DHT22;4618;48.818;9.088;2022-11-20T16:58:56;6.60;99.90
9167;DHT22;4618;48.818;9.088;2022-11-20T17:01:23;6.50;99.90
9167;DHT22;4618;48.818;9.088;2022-11-20T17:04:03;6.40;1.00
9167;DHT22;4618;48.818;9.088;2022-11-20T17:06:37;6.40;1.00
9167;DHT22;4618;48.818;9.088;2022-11-20T17:09:05;6.60;99.90
9167;DHT22;4618;48.818;9.088;2022-11-20T17:11:33;6.60;99.90
9167;DHT22;4618;48.818;9.088;2022-11-20T17:13:59;6.50;99.90
9167;DHT22;4618;48.818;9.088;2022-11-20T17:16:25;6.60;99.90
9167;DHT22;4618;48.818;9.088;2022-11-20T17:18:53;6.70;99.90
9167;DHT22;4618;48.818;9.088;2022-11-20T17:21:19;6.60;96.60
9167;DHT22;4618;48.818;9.088;2022-11-20T17:23:45;6.70;15.80
9167;DHT22;4618;48.818;9.088;2022-11-20T17:28:39;6.70;99.80
9167;DHT22;4618;48.818;9.088;2022-11-20T17:31:13;6.70;69.50
9167;DHT22;4618;48.818;9.088;2022-11-20T17:33:41;6.60;99.90
9167;DHT22;4618;48.818;9.088;2022-11-20T17:36:09;6.60;99.90
9167;DHT22;4618;48.818;9.088;2022-11-20T17:38:35;6.70;1.00
9167;DHT22;4618;48.818;9.088;2022-11-20T17:41:06;6.70;1.00
9167;DHT22;4618;48.818;9.088;2022-11-20T17:43:33;6.70;1.00
9167;DHT22;4618;48.818;9.088;2022-11-20T17:46:07;6.70;1.00
9167;DHT22;4618;48.818;9.088;2022-11-20T17:48:33;6.80;1.00
9167;DHT22;4618;48.818;9.088;2022-11-20T17:51:04;6.70;1.00
9167;DHT22;4618;48.818;9.088;2022-11-20T17:53:35;6.80;1.00
9167;DHT22;4618;48.818;9.088;2022-11-20T17:56:02;6.70;1.00
9167;DHT22;4618;48.818;9.088;2022-11-20T17:58:46;6.60;1.00
9167;DHT22;4618;48.818;9.088;2022-11-20T18:01:11;6.70;1.00
9167;DHT22;4618;48.818;9.088;2022-11-20T18:03:37;6.70;1.00
9167;DHT22;4618;48.818;9.088;2022-11-20T18:06:09;6.70;99.90
9167;DHT22;4618;48.818;9.088;2022-11-20T18:08:35;6.70;1.00
9167;DHT22;4618;48.818;9.088;2022-11-20T18:11:31;6.70;1.00
9167;DHT22;4618;48.818;9.088;2022-11-20T18:13:57;6.80;99.90
9167;DHT22;4618;48.818;9.088;2022-11-20T18:17:02;6.80;99.90
9167;DHT22;4618;48.818;9.088;2022-11-20T18:19:48;6.70;99.90